sensor_id;sensor_type;location;lat;lon;timestamp;P1;durP1;ratioP1;P2;durP2;ratioP2
33830;SDS011;20137;48.834;8.732;2022-10-31T00:01:14;6.45;;;3.38;;
33830;SDS011;20137;48.834;8.732;2022-10-31T00:03:40;7.78;;;2.83;;
33830;SDS011;20137;48.834;8.732;2022-10-31T00:06:06;11.55;;;3.25;;
33830;SDS011;20137;48.834;8.732;2022-10-31T00:08:32;9.05;;;3.03;;
33830;SDS011;20137;48.834;8.732;2022-10-31T00:10:58;10.30;;;2.60;;
33830;SDS011;20137;48.834;8.732;2022-10-31T00:13:24;6.80;;;2.63;;
33830;SDS011;20137;48.834;8.732;2022-10-31T00:15:50;9.85;;;2.55;;
33830;SDS011;20137;48.834;8.732;2022-10-31T00:18:16;8.82;;;3.00;;
33830;SDS011;20137;48.834;8.732;2022-10-31T00:20:42;8.85;;;3.03;;
33830;SDS011;20137;48.834;8.732;2022-10-31T00:23:08;10.27;;;3.13;;
33830;SDS011;20137;48.834;8.732;2022-10-31T00:25:36;10.00;;;3.00;;
33830;SDS011;20137;48.834;8.732;2022-10-31T00:28:02;9.82;;;2.85;;
33830;SDS011;20137;48.834;8.732;2022-10-31T00:30:29;9.63;;;2.88;;
33830;SDS011;20137;48.834;8.732;2022-10-31T00:32:54;10.63;;;3.33;;
33830;SDS011;20137;48.834;8.732;2022-10-31T00:35:21;11.57;;;3.22;;
33830;SDS011;20137;48.834;8.732;2022-10-31T00:37:47;12.38;;;3.03;;
33830;SDS011;20137;48.834;8.732;2022-10-31T00:40:13;12.18;;;3.08;;
33830;SDS011;20137;48.834;8.732;2022-10-31T00:42:39;13.38;;;3.15;;
33830;SDS011;20137;48.834;8.732;2022-10-31T00:45:06;8.85;;;2.72;;
33830;SDS011;20137;48.834;8.732;2022-10-31T00:47:34;8.80;;;3.15;;
33830;SDS011;20137;48.834;8.732;2022-10-31T00:50:00;13.68;;;3.03;;
33830;SDS011;20137;48.834;8.732;2022-10-31T00:52:26;6.95;;;3.00;;
33830;SDS011;20137;48.834;8.732;2022-10-31T00:54:52;13.90;;;3.15;;
33830;SDS011;20137;48.834;8.732;2022-10-31T00:57:18;10.27;;;2.92;;
33830;SDS011;20137;48.834;8.732;2022-10-31T00:59:44;8.63;;;3.15;;
33830;SDS011;20137;48.834;8.732;2022-10-31T01:02:10;9.77;;;3.63;;
33830;SDS011;20137;48.834;8.732;2022-10-31T01:04:36;10.57;;;3.00;;
33830;SDS011;20137;48.834;8.732;2022-10-31T01:07:02;8.15;;;2.67;;
33830;SDS011;20137;48.834;8.732;2022-10-31T01:09:28;8.50;;;3.03;;
33830;SDS011;20137;48.834;8.732;2022-10-31T01:11:54;7.18;;;2.90;;
33830;SDS011;20137;48.834;8.732;2022-10-31T01:14:20;9.25;;;2.90;;
33830;SDS011;20137;48.834;8.732;2022-10-31T01:16:46;7.15;;;2.92;;
33830;SDS011;20137;48.834;8.732;2022-10-31T01:19:12;8.70;;;2.83;;
33830;SDS011;20137;48.834;8.732;2022-10-31T01:21:38;8.80;;;3.08;;
33830;SDS011;20137;48.834;8.732;2022-10-31T01:24:04;9.65;;;2.92;;
33830;SDS011;20137;48.834;8.732;2022-10-31T01:26:31;14.45;;;3.17;;
33830;SDS011;20137;48.834;8.732;2022-10-31T01:28:58;7.53;;;3.10;;
33830;SDS011;20137;48.834;8.732;2022-10-31T01:31:25;10.60;;;3.70;;
33830;SDS011;20137;48.834;8.732;2022-10-31T01:33:52;10.70;;;3.40;;
33830;SDS011;20137;48.834;8.732;2022-10-31T01:38:44;10.98;;;3.28;;
33830;SDS011;20137;48.834;8.732;2022-10-31T01:41:10;11.45;;;3.40;;
33830;SDS011;20137;48.834;8.732;2022-10-31T01:43:48;7.13;;;3.42;;
33830;SDS011;20137;48.834;8.732;2022-10-31T01:46:14;9.90;;;3.10;;
33830;SDS011;20137;48.834;8.732;2022-10-31T01:48:41;8.50;;;3.20;;
33830;SDS011;20137;48.834;8.732;2022-10-31T01:51:07;9.07;;;3.42;;
33830;SDS011;20137;48.834;8.732;2022-10-31T01:53:34;9.32;;;2.97;;
33830;SDS011;20137;48.834;8.732;2022-10-31T01:56:01;7.10;;;2.90;;
33830;SDS011;20137;48.834;8.732;2022-10-31T01:58:27;13.25;;;3.35;;
33830;SDS011;20137;48.834;8.732;2022-10-31T02:00:55;7.65;;;3.13;;
33830;SDS011;20137;48.834;8.732;2022-10-31T02:03:23;8.85;;;3.38;;
33830;SDS011;20137;48.834;8.732;2022-10-31T02:05:50;13.68;;;3.25;;
33830;SDS011;20137;48.834;8.732;2022-10-31T02:08:18;7.82;;;3.30;;
33830;SDS011;20137;48.834;8.732;2022-10-31T02:10:45;6.78;;;3.00;;
33830;SDS011;20137;48.834;8.732;2022-10-31T02:13:11;12.35;;;3.15;;
33830;SDS011;20137;48.834;8.732;2022-10-31T02:15:38;11.05;;;2.95;;
33830;SDS011;20137;48.834;8.732;2022-10-31T02:18:05;9.00;;;3.65;;
33830;SDS011;20137;48.834;8.732;2022-10-31T02:23:18;7.95;;;3.00;;
33830;SDS011;20137;48.834;8.732;2022-10-31T02:26:03;9.43;;;3.05;;
33830;SDS011;20137;48.834;8.732;2022-10-31T02:34:01;11.18;;;3.63;;
33830;SDS011;20137;48.834;8.732;2022-10-31T02:36:36;10.68;;;2.75;;
33830;SDS011;20137;48.834;8.732;2022-10-31T02:49:03;10.93;;;3.60;;
33830;SDS011;20137;48.834;8.732;2022-10-31T02:51:31;9.05;;;2.90;;
33830;SDS011;20137;48.834;8.732;2022-10-31T02:53:57;7.30;;;2.85;;
33830;SDS011;20137;48.834;8.732;2022-10-31T02:56:23;5.25;;;2.90;;
33830;SDS011;20137;48.834;8.732;2022-10-31T02:58:50;10.40;;;2.83;;
33830;SDS011;20137;48.834;8.732;2022-10-31T03:01:20;8.80;;;3.30;;
33830;SDS011;20137;48.834;8.732;2022-10-31T03:06:35;6.00;;;3.10;;
33830;SDS011;20137;48.834;8.732;2022-10-31T03:09:25;5.47;;;3.00;;
33830;SDS011;20137;48.834;8.732;2022-10-31T03:11:56;11.98;;;3.40;;
33830;SDS011;20137;48.834;8.732;2022-10-31T03:14:36;10.20;;;2.80;;
33830;SDS011;20137;48.834;8.732;2022-10-31T03:17:05;9.02;;;2.85;;
33830;SDS011;20137;48.834;8.732;2022-10-31T03:19:43;13.70;;;3.05;;
33830;SDS011;20137;48.834;8.732;2022-10-31T03:22:19;10.45;;;3.10;;
33830;SDS011;20137;48.834;8.732;2022-10-31T03:24:47;5.32;;;2.95;;
33830;SDS011;20137;48.834;8.732;2022-10-31T03:27:15;7.65;;;3.03;;
33830;SDS011;20137;48.834;8.732;2022-10-31T03:29:42;7.85;;;2.70;;
33830;SDS011;20137;48.834;8.732;2022-10-31T03:32:10;7.03;;;2.88;;
33830;SDS011;20137;48.834;8.732;2022-10-31T03:34:39;8.05;;;3.00;;
33830;SDS011;20137;48.834;8.732;2022-10-31T03:37:06;6.85;;;2.83;;
33830;SDS011;20137;48.834;8.732;2022-10-31T03:39:33;9.05;;;3.03;;
33830;SDS011;20137;48.834;8.732;2022-10-31T03:42:02;11.68;;;3.13;;
33830;SDS011;20137;48.834;8.732;2022-10-31T03:44:30;7.90;;;2.38;;
33830;SDS011;20137;48.834;8.732;2022-10-31T03:46:58;8.43;;;3.05;;
33830;SDS011;20137;48.834;8.732;2022-10-31T03:49:24;14.30;;;3.45;;
33830;SDS011;20137;48.834;8.732;2022-10-31T03:56:49;11.35;;;3.30;;
33830;SDS011;20137;48.834;8.732;2022-10-31T04:02:02;7.20;;;2.67;;
33830;SDS011;20137;48.834;8.732;2022-10-31T04:04:29;6.88;;;2.78;;
33830;SDS011;20137;48.834;8.732;2022-10-31T04:06:55;9.52;;;2.47;;
33830;SDS011;20137;48.834;8.732;2022-10-31T04:09:22;6.68;;;2.38;;
33830;SDS011;20137;48.834;8.732;2022-10-31T04:11:50;8.68;;;2.60;;
33830;SDS011;20137;48.834;8.732;2022-10-31T04:14:17;6.60;;;2.53;;
33830;SDS011;20137;48.834;8.732;2022-10-31T04:16:43;7.35;;;2.70;;
33830;SDS011;20137;48.834;8.732;2022-10-31T04:19:10;6.18;;;2.90;;
33830;SDS011;20137;48.834;8.732;2022-10-31T04:21:36;9.25;;;3.15;;
33830;SDS011;20137;48.834;8.732;2022-10-31T04:24:03;7.22;;;2.88;;
33830;SDS011;20137;48.834;8.732;2022-10-31T04:26:29;14.82;;;2.78;;
33830;SDS011;20137;48.834;8.732;2022-10-31T04:28:55;8.93;;;2.92;;
33830;SDS011;20137;48.834;8.732;2022-10-31T04:31:21;8.88;;;3.33;;
33830;SDS011;20137;48.834;8.732;2022-10-31T04:33:47;10.95;;;3.03;;
33830;SDS011;20137;48.834;8.732;2022-10-31T04:36:13;12.77;;;3.28;;
33830;SDS011;20137;48.834;8.732;2022-10-31T04:38:39;10.10;;;2.85;;
33830;SDS011;20137;48.834;8.732;2022-10-31T04:41:05;7.97;;;3.17;;
33830;SDS011;20137;48.834;8.732;2022-10-31T04:43:31;9.38;;;3.40;;
33830;SDS011;20137;48.834;8.732;2022-10-31T04:45:57;10.90;;;3.35;;
33830;SDS011;20137;48.834;8.732;2022-10-31T04:48:23;12.23;;;3.47;;
33830;SDS011;20137;48.834;8.732;2022-10-31T04:50:49;11.93;;;3.70;;
33830;SDS011;20137;48.834;8.732;2022-10-31T04:53:15;9.27;;;3.60;;
33830;SDS011;20137;48.834;8.732;2022-10-31T04:55:41;13.10;;;3.40;;
33830;SDS011;20137;48.834;8.732;2022-10-31T04:58:07;11.70;;;3.40;;
33830;SDS011;20137;48.834;8.732;2022-10-31T05:00:33;9.05;;;3.15;;
33830;SDS011;20137;48.834;8.732;2022-10-31T05:02:59;7.72;;;3.35;;
33830;SDS011;20137;48.834;8.732;2022-10-31T05:05:26;10.02;;;3.35;;
33830;SDS011;20137;48.834;8.732;2022-10-31T05:07:52;6.53;;;3.33;;
33830;SDS011;20137;48.834;8.732;2022-10-31T05:10:19;9.90;;;3.80;;
33830;SDS011;20137;48.834;8.732;2022-10-31T05:12:46;8.07;;;3.53;;
33830;SDS011;20137;48.834;8.732;2022-10-31T05:15:13;11.73;;;3.45;;
33830;SDS011;20137;48.834;8.732;2022-10-31T05:17:39;10.38;;;5.25;;
33830;SDS011;20137;48.834;8.732;2022-10-31T05:20:05;18.45;;;9.93;;
33830;SDS011;20137;48.834;8.732;2022-10-31T05:22:31;14.43;;;6.25;;
33830;SDS011;20137;48.834;8.732;2022-10-31T05:24:57;8.65;;;5.07;;
33830;SDS011;20137;48.834;8.732;2022-10-31T05:27:23;9.90;;;3.88;;
33830;SDS011;20137;48.834;8.732;2022-10-31T05:29:49;8.52;;;3.90;;
33830;SDS011;20137;48.834;8.732;2022-10-31T05:32:15;7.10;;;3.25;;
33830;SDS011;20137;48.834;8.732;2022-10-31T05:34:41;8.52;;;3.75;;
33830;SDS011;20137;48.834;8.732;2022-10-31T05:37:07;11.57;;;3.92;;
33830;SDS011;20137;48.834;8.732;2022-10-31T05:39:33;9.13;;;3.65;;
33830;SDS011;20137;48.834;8.732;2022-10-31T05:41:59;14.43;;;3.60;;
33830;SDS011;20137;48.834;8.732;2022-10-31T05:44:25;10.63;;;3.17;;
33830;SDS011;20137;48.834;8.732;2022-10-31T05:46:51;10.52;;;3.85;;
33830;SDS011;20137;48.834;8.732;2022-10-31T05:49:17;16.73;;;3.58;;
33830;SDS011;20137;48.834;8.732;2022-10-31T05:51:43;10.95;;;3.63;;
33830;SDS011;20137;48.834;8.732;2022-10-31T05:54:09;10.73;;;3.50;;
33830;SDS011;20137;48.834;8.732;2022-10-31T05:56:35;9.25;;;3.20;;
33830;SDS011;20137;48.834;8.732;2022-10-31T05:59:01;12.60;;;3.42;;
33830;SDS011;20137;48.834;8.732;2022-10-31T06:01:27;14.25;;;3.90;;
33830;SDS011;20137;48.834;8.732;2022-10-31T06:03:53;7.57;;;3.90;;
33830;SDS011;20137;48.834;8.732;2022-10-31T06:06:19;9.38;;;3.25;;
33830;SDS011;20137;48.834;8.732;2022-10-31T06:08:45;11.13;;;3.97;;
33830;SDS011;20137;48.834;8.732;2022-10-31T06:11:11;8.80;;;3.33;;
33830;SDS011;20137;48.834;8.732;2022-10-31T06:13:37;9.68;;;3.80;;
33830;SDS011;20137;48.834;8.732;2022-10-31T06:16:03;7.80;;;3.42;;
33830;SDS011;20137;48.834;8.732;2022-10-31T06:18:29;8.57;;;3.50;;
33830;SDS011;20137;48.834;8.732;2022-10-31T06:20:55;9.00;;;3.58;;
33830;SDS011;20137;48.834;8.732;2022-10-31T06:23:20;7.95;;;3.60;;
33830;SDS011;20137;48.834;8.732;2022-10-31T06:25:50;9.80;;;3.80;;
33830;SDS011;20137;48.834;8.732;2022-10-31T06:28:16;12.95;;;3.65;;
33830;SDS011;20137;48.834;8.732;2022-10-31T06:30:42;8.13;;;3.35;;
33830;SDS011;20137;48.834;8.732;2022-10-31T06:33:08;8.07;;;3.03;;
33830;SDS011;20137;48.834;8.732;2022-10-31T06:35:34;9.57;;;3.47;;
33830;SDS011;20137;48.834;8.732;2022-10-31T06:38:00;13.10;;;3.72;;
33830;SDS011;20137;48.834;8.732;2022-10-31T06:40:26;10.63;;;3.85;;
33830;SDS011;20137;48.834;8.732;2022-10-31T06:42:56;7.65;;;3.72;;
33830;SDS011;20137;48.834;8.732;2022-10-31T06:45:22;8.77;;;3.65;;
33830;SDS011;20137;48.834;8.732;2022-10-31T06:47:52;11.00;;;4.22;;
33830;SDS011;20137;48.834;8.732;2022-10-31T06:50:18;6.00;;;3.45;;
33830;SDS011;20137;48.834;8.732;2022-10-31T06:52:49;9.02;;;3.60;;
33830;SDS011;20137;48.834;8.732;2022-10-31T06:55:15;9.98;;;4.03;;
33830;SDS011;20137;48.834;8.732;2022-10-31T06:57:41;11.63;;;3.42;;
33830;SDS011;20137;48.834;8.732;2022-10-31T07:00:08;7.80;;;3.60;;
33830;SDS011;20137;48.834;8.732;2022-10-31T07:02:34;11.88;;;3.65;;
33830;SDS011;20137;48.834;8.732;2022-10-31T07:05:00;10.75;;;4.00;;
33830;SDS011;20137;48.834;8.732;2022-10-31T07:07:26;10.95;;;4.82;;
33830;SDS011;20137;48.834;8.732;2022-10-31T07:09:52;9.15;;;4.15;;
33830;SDS011;20137;48.834;8.732;2022-10-31T07:12:18;12.05;;;4.28;;
33830;SDS011;20137;48.834;8.732;2022-10-31T07:14:44;8.25;;;3.35;;
33830;SDS011;20137;48.834;8.732;2022-10-31T07:17:10;10.93;;;3.58;;
33830;SDS011;20137;48.834;8.732;2022-10-31T07:19:36;7.45;;;3.20;;
33830;SDS011;20137;48.834;8.732;2022-10-31T07:22:02;8.55;;;2.97;;
33830;SDS011;20137;48.834;8.732;2022-10-31T07:24:28;12.23;;;3.15;;
33830;SDS011;20137;48.834;8.732;2022-10-31T07:26:55;9.48;;;3.47;;
33830;SDS011;20137;48.834;8.732;2022-10-31T07:29:21;10.70;;;3.28;;
33830;SDS011;20137;48.834;8.732;2022-10-31T07:31:47;8.73;;;3.47;;
33830;SDS011;20137;48.834;8.732;2022-10-31T07:34:13;7.65;;;3.47;;
33830;SDS011;20137;48.834;8.732;2022-10-31T07:36:39;8.48;;;3.50;;
33830;SDS011;20137;48.834;8.732;2022-10-31T07:39:05;8.43;;;3.28;;
33830;SDS011;20137;48.834;8.732;2022-10-31T07:41:31;6.75;;;3.08;;
33830;SDS011;20137;48.834;8.732;2022-10-31T07:43:57;11.07;;;3.28;;
33830;SDS011;20137;48.834;8.732;2022-10-31T07:46:23;9.48;;;3.38;;
33830;SDS011;20137;48.834;8.732;2022-10-31T07:48:49;13.77;;;3.28;;
33830;SDS011;20137;48.834;8.732;2022-10-31T07:51:15;10.77;;;3.22;;
33830;SDS011;20137;48.834;8.732;2022-10-31T07:53:41;7.65;;;2.58;;
33830;SDS011;20137;48.834;8.732;2022-10-31T07:56:07;8.00;;;2.63;;
33830;SDS011;20137;48.834;8.732;2022-10-31T07:58:33;12.27;;;3.65;;
33830;SDS011;20137;48.834;8.732;2022-10-31T08:00:59;7.05;;;2.80;;
33830;SDS011;20137;48.834;8.732;2022-10-31T08:03:25;8.13;;;2.55;;
33830;SDS011;20137;48.834;8.732;2022-10-31T08:05:51;8.55;;;2.95;;
33830;SDS011;20137;48.834;8.732;2022-10-31T08:08:17;7.07;;;2.75;;
33830;SDS011;20137;48.834;8.732;2022-10-31T08:10:44;8.00;;;2.95;;
33830;SDS011;20137;48.834;8.732;2022-10-31T08:13:11;8.20;;;3.45;;
33830;SDS011;20137;48.834;8.732;2022-10-31T08:15:37;10.57;;;3.35;;
33830;SDS011;20137;48.834;8.732;2022-10-31T08:18:06;9.32;;;3.50;;
33830;SDS011;20137;48.834;8.732;2022-10-31T08:20:32;8.43;;;2.78;;
33830;SDS011;20137;48.834;8.732;2022-10-31T08:23:03;7.53;;;3.42;;
33830;SDS011;20137;48.834;8.732;2022-10-31T08:25:30;10.98;;;3.50;;
33830;SDS011;20137;48.834;8.732;2022-10-31T08:27:56;13.07;;;3.47;;
33830;SDS011;20137;48.834;8.732;2022-10-31T08:30:23;6.53;;;3.13;;
33830;SDS011;20137;48.834;8.732;2022-10-31T08:35:42;12.38;;;3.08;;
33830;SDS011;20137;48.834;8.732;2022-10-31T08:38:09;7.97;;;2.70;;
33830;SDS011;20137;48.834;8.732;2022-10-31T08:40:36;15.32;;;3.33;;
33830;SDS011;20137;48.834;8.732;2022-10-31T08:43:03;7.57;;;2.60;;
33830;SDS011;20137;48.834;8.732;2022-10-31T08:45:30;9.13;;;2.80;;
33830;SDS011;20137;48.834;8.732;2022-10-31T08:47:57;12.65;;;3.08;;
33830;SDS011;20137;48.834;8.732;2022-10-31T08:50:24;13.50;;;3.20;;
33830;SDS011;20137;48.834;8.732;2022-10-31T08:52:50;8.65;;;3.22;;
33830;SDS011;20137;48.834;8.732;2022-10-31T08:55:16;8.90;;;2.83;;
33830;SDS011;20137;48.834;8.732;2022-10-31T08:57:42;8.95;;;3.92;;
33830;SDS011;20137;48.834;8.732;2022-10-31T09:00:08;9.75;;;3.65;;
33830;SDS011;20137;48.834;8.732;2022-10-31T09:02:34;12.02;;;3.15;;
33830;SDS011;20137;48.834;8.732;2022-10-31T09:05:02;8.23;;;3.17;;
33830;SDS011;20137;48.834;8.732;2022-10-31T09:07:28;9.10;;;3.45;;
33830;SDS011;20137;48.834;8.732;2022-10-31T09:09:54;11.50;;;3.50;;
33830;SDS011;20137;48.834;8.732;2022-10-31T09:12:20;6.70;;;2.90;;
33830;SDS011;20137;48.834;8.732;2022-10-31T09:14:46;15.30;;;3.05;;
33830;SDS011;20137;48.834;8.732;2022-10-31T09:17:12;8.98;;;2.67;;
33830;SDS011;20137;48.834;8.732;2022-10-31T09:19:38;6.38;;;2.80;;
33830;SDS011;20137;48.834;8.732;2022-10-31T09:22:05;9.75;;;3.42;;
33830;SDS011;20137;48.834;8.732;2022-10-31T09:24:31;12.25;;;3.13;;
33830;SDS011;20137;48.834;8.732;2022-10-31T09:26:58;7.22;;;2.92;;
33830;SDS011;20137;48.834;8.732;2022-10-31T09:29:24;7.70;;;2.53;;
33830;SDS011;20137;48.834;8.732;2022-10-31T09:31:50;8.10;;;2.90;;
33830;SDS011;20137;48.834;8.732;2022-10-31T09:34:16;13.10;;;2.70;;
33830;SDS011;20137;48.834;8.732;2022-10-31T09:36:42;8.65;;;2.80;;
33830;SDS011;20137;48.834;8.732;2022-10-31T09:39:09;15.02;;;2.63;;
33830;SDS011;20137;48.834;8.732;2022-10-31T09:44:07;6.03;;;2.65;;
33830;SDS011;20137;48.834;8.732;2022-10-31T09:51:53;6.65;;;2.58;;
33830;SDS011;20137;48.834;8.732;2022-10-31T09:54:30;6.80;;;2.67;;
33830;SDS011;20137;48.834;8.732;2022-10-31T09:56:58;7.43;;;3.00;;
33830;SDS011;20137;48.834;8.732;2022-10-31T09:59:31;7.03;;;2.40;;
33830;SDS011;20137;48.834;8.732;2022-10-31T10:02:01;6.97;;;2.33;;
33830;SDS011;20137;48.834;8.732;2022-10-31T10:04:42;11.55;;;2.50;;
33830;SDS011;20137;48.834;8.732;2022-10-31T10:07:23;10.95;;;3.15;;
33830;SDS011;20137;48.834;8.732;2022-10-31T10:09:52;9.38;;;2.88;;
33830;SDS011;20137;48.834;8.732;2022-10-31T10:17:51;7.32;;;2.65;;
33830;SDS011;20137;48.834;8.732;2022-10-31T10:23:03;10.30;;;3.05;;
33830;SDS011;20137;48.834;8.732;2022-10-31T10:25:34;6.95;;;2.67;;
33830;SDS011;20137;48.834;8.732;2022-10-31T10:28:21;12.02;;;2.70;;
33830;SDS011;20137;48.834;8.732;2022-10-31T10:33:27;8.15;;;2.88;;
33830;SDS011;20137;48.834;8.732;2022-10-31T10:36:00;9.77;;;3.72;;
33830;SDS011;20137;48.834;8.732;2022-10-31T10:38:38;10.35;;;3.95;;
33830;SDS011;20137;48.834;8.732;2022-10-31T10:41:14;11.18;;;3.58;;
33830;SDS011;20137;48.834;8.732;2022-10-31T10:43:41;8.60;;;3.00;;
33830;SDS011;20137;48.834;8.732;2022-10-31T10:59:13;8.75;;;3.65;;
33830;SDS011;20137;48.834;8.732;2022-10-31T11:01:40;9.90;;;3.25;;
33830;SDS011;20137;48.834;8.732;2022-10-31T11:04:26;12.05;;;3.13;;
33830;SDS011;20137;48.834;8.732;2022-10-31T11:09:18;7.28;;;3.80;;
33830;SDS011;20137;48.834;8.732;2022-10-31T11:11:44;9.43;;;3.78;;
33830;SDS011;20137;48.834;8.732;2022-10-31T11:14:14;11.52;;;3.28;;
33830;SDS011;20137;48.834;8.732;2022-10-31T11:16:42;9.88;;;3.45;;
33830;SDS011;20137;48.834;8.732;2022-10-31T11:21:40;9.40;;;3.47;;
33830;SDS011;20137;48.834;8.732;2022-10-31T11:26:35;10.40;;;3.78;;
33830;SDS011;20137;48.834;8.732;2022-10-31T11:29:03;8.00;;;2.80;;
33830;SDS011;20137;48.834;8.732;2022-10-31T11:31:30;11.88;;;3.45;;
33830;SDS011;20137;48.834;8.732;2022-10-31T11:33:59;12.55;;;3.92;;
33830;SDS011;20137;48.834;8.732;2022-10-31T11:36:30;9.60;;;2.92;;
33830;SDS011;20137;48.834;8.732;2022-10-31T11:38:56;9.50;;;3.70;;
33830;SDS011;20137;48.834;8.732;2022-10-31T11:41:28;5.97;;;3.22;;
33830;SDS011;20137;48.834;8.732;2022-10-31T11:43:57;10.32;;;3.13;;
33830;SDS011;20137;48.834;8.732;2022-10-31T11:46:28;11.35;;;3.72;;
33830;SDS011;20137;48.834;8.732;2022-10-31T11:48:55;16.13;;;3.92;;
33830;SDS011;20137;48.834;8.732;2022-10-31T11:51:23;8.93;;;2.97;;
33830;SDS011;20137;48.834;8.732;2022-10-31T11:53:53;9.70;;;3.15;;
33830;SDS011;20137;48.834;8.732;2022-10-31T11:56:20;11.15;;;4.03;;
33830;SDS011;20137;48.834;8.732;2022-10-31T11:58:56;11.25;;;4.03;;
33830;SDS011;20137;48.834;8.732;2022-10-31T12:01:26;13.90;;;3.40;;
33830;SDS011;20137;48.834;8.732;2022-10-31T12:04:11;10.20;;;3.50;;
33830;SDS011;20137;48.834;8.732;2022-10-31T12:06:39;7.40;;;3.90;;
33830;SDS011;20137;48.834;8.732;2022-10-31T12:09:17;10.10;;;2.83;;
33830;SDS011;20137;48.834;8.732;2022-10-31T12:16:50;12.68;;;4.28;;
33830;SDS011;20137;48.834;8.732;2022-10-31T12:21:57;11.13;;;3.92;;
33830;SDS011;20137;48.834;8.732;2022-10-31T12:26:57;10.15;;;3.30;;
33830;SDS011;20137;48.834;8.732;2022-10-31T12:40:06;10.25;;;3.90;;
33830;SDS011;20137;48.834;8.732;2022-10-31T12:50:22;9.88;;;3.72;;
33830;SDS011;20137;48.834;8.732;2022-10-31T12:52:56;12.88;;;3.67;;
33830;SDS011;20137;48.834;8.732;2022-10-31T12:55:29;9.27;;;4.22;;
33830;SDS011;20137;48.834;8.732;2022-10-31T12:58:00;13.50;;;3.92;;
33830;SDS011;20137;48.834;8.732;2022-10-31T13:00:27;12.25;;;3.65;;
33830;SDS011;20137;48.834;8.732;2022-10-31T13:02:59;14.52;;;4.45;;
33830;SDS011;20137;48.834;8.732;2022-10-31T13:05:41;10.48;;;3.90;;
33830;SDS011;20137;48.834;8.732;2022-10-31T13:08:26;11.05;;;4.30;;
33830;SDS011;20137;48.834;8.732;2022-10-31T13:14:13;13.70;;;3.95;;
33830;SDS011;20137;48.834;8.732;2022-10-31T13:18:49;9.43;;;4.15;;
33830;SDS011;20137;48.834;8.732;2022-10-31T13:21:18;11.60;;;4.25;;
33830;SDS011;20137;48.834;8.732;2022-10-31T13:23:48;10.15;;;3.65;;
33830;SDS011;20137;48.834;8.732;2022-10-31T13:26:18;8.98;;;3.53;;
33830;SDS011;20137;48.834;8.732;2022-10-31T13:28:46;8.38;;;3.78;;
33830;SDS011;20137;48.834;8.732;2022-10-31T13:31:14;10.18;;;4.03;;
33830;SDS011;20137;48.834;8.732;2022-10-31T13:44:17;7.15;;;3.17;;
33830;SDS011;20137;48.834;8.732;2022-10-31T13:46:44;11.50;;;4.38;;
33830;SDS011;20137;48.834;8.732;2022-10-31T13:49:23;14.65;;;5.28;;
33830;SDS011;20137;48.834;8.732;2022-10-31T13:51:49;28.55;;;8.65;;
33830;SDS011;20137;48.834;8.732;2022-10-31T13:54:31;10.38;;;4.22;;
33830;SDS011;20137;48.834;8.732;2022-10-31T13:56:58;12.32;;;4.38;;
33830;SDS011;20137;48.834;8.732;2022-10-31T13:59:25;6.45;;;3.95;;
33830;SDS011;20137;48.834;8.732;2022-10-31T14:01:56;16.77;;;4.57;;
33830;SDS011;20137;48.834;8.732;2022-10-31T14:04:24;11.48;;;4.10;;
33830;SDS011;20137;48.834;8.732;2022-10-31T14:06:53;10.57;;;4.72;;
33830;SDS011;20137;48.834;8.732;2022-10-31T14:09:24;20.30;;;5.63;;
33830;SDS011;20137;48.834;8.732;2022-10-31T14:11:50;9.05;;;3.67;;
33830;SDS011;20137;48.834;8.732;2022-10-31T14:14:16;12.65;;;3.97;;
33830;SDS011;20137;48.834;8.732;2022-10-31T14:16:44;17.27;;;4.43;;
33830;SDS011;20137;48.834;8.732;2022-10-31T14:19:15;13.50;;;4.70;;
33830;SDS011;20137;48.834;8.732;2022-10-31T14:21:43;12.10;;;4.63;;
33830;SDS011;20137;48.834;8.732;2022-10-31T14:26:54;33.10;;;8.00;;
33830;SDS011;20137;48.834;8.732;2022-10-31T14:29:28;8.27;;;4.35;;
33830;SDS011;20137;48.834;8.732;2022-10-31T14:39:21;12.95;;;5.03;;
33830;SDS011;20137;48.834;8.732;2022-10-31T14:42:15;12.73;;;4.35;;
33830;SDS011;20137;48.834;8.732;2022-10-31T14:49:41;14.18;;;4.68;;
33830;SDS011;20137;48.834;8.732;2022-10-31T14:52:12;16.10;;;5.63;;
33830;SDS011;20137;48.834;8.732;2022-10-31T14:54:39;12.07;;;4.90;;
33830;SDS011;20137;48.834;8.732;2022-10-31T14:57:07;10.85;;;4.43;;
33830;SDS011;20137;48.834;8.732;2022-10-31T14:59:40;16.33;;;5.40;;
33830;SDS011;20137;48.834;8.732;2022-10-31T15:04:34;15.70;;;5.32;;
33830;SDS011;20137;48.834;8.732;2022-10-31T15:07:05;13.00;;;5.65;;
33830;SDS011;20137;48.834;8.732;2022-10-31T15:09:33;10.27;;;5.38;;
33830;SDS011;20137;48.834;8.732;2022-10-31T15:12:00;12.30;;;5.38;;
33830;SDS011;20137;48.834;8.732;2022-10-31T15:14:30;10.48;;;5.18;;
33830;SDS011;20137;48.834;8.732;2022-10-31T15:16:57;15.23;;;5.80;;
33830;SDS011;20137;48.834;8.732;2022-10-31T15:19:24;13.45;;;6.32;;
33830;SDS011;20137;48.834;8.732;2022-10-31T15:21:51;17.85;;;6.38;;
33830;SDS011;20137;48.834;8.732;2022-10-31T15:24:18;12.68;;;4.80;;
33830;SDS011;20137;48.834;8.732;2022-10-31T15:26:49;10.98;;;5.25;;
33830;SDS011;20137;48.834;8.732;2022-10-31T15:29:17;12.48;;;5.55;;
33830;SDS011;20137;48.834;8.732;2022-10-31T15:31:54;14.73;;;6.05;;
33830;SDS011;20137;48.834;8.732;2022-10-31T15:34:21;23.30;;;8.32;;
33830;SDS011;20137;48.834;8.732;2022-10-31T15:36:48;20.20;;;8.25;;
33830;SDS011;20137;48.834;8.732;2022-10-31T15:39:17;18.77;;;7.85;;
33830;SDS011;20137;48.834;8.732;2022-10-31T15:44:26;21.75;;;10.65;;
33830;SDS011;20137;48.834;8.732;2022-10-31T15:51:52;27.73;;;11.18;;
33830;SDS011;20137;48.834;8.732;2022-10-31T15:54:18;37.60;;;13.65;;
33830;SDS011;20137;48.834;8.732;2022-10-31T15:56:44;31.02;;;12.20;;
33830;SDS011;20137;48.834;8.732;2022-10-31T15:59:21;29.50;;;10.77;;
33830;SDS011;20137;48.834;8.732;2022-10-31T16:01:59;21.92;;;10.25;;
33830;SDS011;20137;48.834;8.732;2022-10-31T16:04:25;21.15;;;9.85;;
33830;SDS011;20137;48.834;8.732;2022-10-31T16:07:02;33.15;;;14.65;;
33830;SDS011;20137;48.834;8.732;2022-10-31T16:09:28;31.10;;;15.80;;
33830;SDS011;20137;48.834;8.732;2022-10-31T16:11:56;29.77;;;12.77;;
33830;SDS011;20137;48.834;8.732;2022-10-31T16:14:24;20.95;;;10.77;;
33830;SDS011;20137;48.834;8.732;2022-10-31T16:16:52;17.08;;;8.68;;
33830;SDS011;20137;48.834;8.732;2022-10-31T16:21:44;17.33;;;8.65;;
33830;SDS011;20137;48.834;8.732;2022-10-31T16:24:19;23.05;;;8.05;;
33830;SDS011;20137;48.834;8.732;2022-10-31T16:26:49;14.70;;;7.50;;
33830;SDS011;20137;48.834;8.732;2022-10-31T16:29:37;20.02;;;7.18;;
33830;SDS011;20137;48.834;8.732;2022-10-31T16:32:03;14.45;;;6.53;;
33830;SDS011;20137;48.834;8.732;2022-10-31T16:34:29;17.45;;;7.13;;
33830;SDS011;20137;48.834;8.732;2022-10-31T16:36:56;20.63;;;7.72;;
33830;SDS011;20137;48.834;8.732;2022-10-31T16:39:22;17.83;;;6.20;;
33830;SDS011;20137;48.834;8.732;2022-10-31T16:41:49;14.18;;;7.03;;
33830;SDS011;20137;48.834;8.732;2022-10-31T16:44:23;18.88;;;6.82;;
33830;SDS011;20137;48.834;8.732;2022-10-31T16:47:06;19.88;;;8.18;;
33830;SDS011;20137;48.834;8.732;2022-10-31T16:49:32;29.08;;;9.82;;
33830;SDS011;20137;48.834;8.732;2022-10-31T16:51:58;18.48;;;7.68;;
33830;SDS011;20137;48.834;8.732;2022-10-31T16:54:24;20.33;;;7.80;;
33830;SDS011;20137;48.834;8.732;2022-10-31T16:56:51;15.13;;;7.93;;
33830;SDS011;20137;48.834;8.732;2022-10-31T16:59:17;18.85;;;7.90;;
33830;SDS011;20137;48.834;8.732;2022-10-31T17:01:43;13.45;;;6.50;;
33830;SDS011;20137;48.834;8.732;2022-10-31T17:04:13;13.63;;;6.10;;
33830;SDS011;20137;48.834;8.732;2022-10-31T17:06:40;14.75;;;6.63;;
33830;SDS011;20137;48.834;8.732;2022-10-31T17:09:06;16.17;;;6.45;;
33830;SDS011;20137;48.834;8.732;2022-10-31T17:11:32;14.57;;;7.60;;